createdAt,value
2023-02-18T00:01:44.300Z,4.42
2023-02-18T00:04:12.736Z,4.38
2023-02-18T00:06:41.777Z,4.38
2023-02-18T00:09:10.849Z,4.38
2023-02-18T00:11:40.009Z,4.38
2023-02-18T00:14:11.431Z,4.39
2023-02-18T00:16:42.072Z,4.37
2023-02-18T00:19:18.403Z,4.35
2023-02-18T00:21:46.967Z,4.35
2023-02-18T00:24:15.729Z,4.33
2023-02-18T00:26:44.445Z,4.33
2023-02-18T00:29:13.055Z,4.32
2023-02-18T00:31:46.125Z,4.33
2023-02-18T00:34:14.669Z,4.33
2023-02-18T00:36:43.266Z,4.32
2023-02-18T00:39:12.973Z,4.34
2023-02-18T00:41:42.244Z,4.35
2023-02-18T00:44:11.468Z,4.37
2023-02-18T00:46:39.935Z,4.38
2023-02-18T00:49:08.735Z,4.38
2023-02-18T00:51:37.650Z,4.41
2023-02-18T00:54:06.314Z,4.40
2023-02-18T00:56:34.695Z,4.39
2023-02-18T00:59:03.053Z,4.40
2023-02-18T01:01:32.152Z,4.40
2023-02-18T01:04:00.662Z,4.39
2023-02-18T01:06:29.091Z,4.39
2023-02-18T01:08:57.365Z,4.40
2023-02-18T01:11:25.801Z,4.38
2023-02-18T01:13:54.365Z,4.34
2023-02-18T01:16:24.074Z,4.39
2023-02-18T01:18:53.714Z,4.36
2023-02-18T01:21:22.037Z,4.40
2023-02-18T01:23:50.579Z,4.35
2023-02-18T01:26:19.340Z,4.34
2023-02-18T01:28:48.417Z,4.33
2023-02-18T01:31:17.062Z,4.35
2023-02-18T01:33:46.604Z,4.38
2023-02-18T01:36:15.269Z,4.39
2023-02-18T01:38:43.526Z,4.38
2023-02-18T01:41:11.924Z,4.37
2023-02-18T01:43:40.300Z,4.38
2023-02-18T01:46:19.530Z,4.38
2023-02-18T01:48:48.775Z,4.35
2023-02-18T01:51:18.125Z,4.39
2023-02-18T01:53:56.487Z,4.42
2023-02-18T01:56:48.558Z,4.39
2023-02-18T01:59:19.033Z,4.36
2023-02-18T02:01:47.414Z,4.29
2023-02-18T02:04:15.868Z,4.30
2023-02-18T02:06:44.147Z,4.28
2023-02-18T02:09:15.014Z,4.21
2023-02-18T02:11:56.674Z,4.20
2023-02-18T02:14:31.097Z,4.19
2023-02-18T02:17:16.255Z,4.16
2023-02-18T02:20:03.981Z,4.20
2023-02-18T02:22:41.246Z,4.13
2023-02-18T02:25:12.648Z,4.13
2023-02-18T02:28:11.017Z,4.05
2023-02-18T02:31:01.977Z,4.01
2023-02-18T02:33:56.799Z,3.95
2023-02-18T02:36:44.477Z,3.90
2023-02-18T02:39:18.620Z,3.88
2023-02-18T02:42:02.330Z,3.81
2023-02-18T02:44:36.555Z,3.74
2023-02-18T02:47:31.613Z,3.77
2023-02-18T02:50:10.936Z,3.75
2023-02-18T02:52:45.377Z,3.75
2023-02-18T02:55:14.322Z,3.82
2023-02-18T02:57:44.905Z,3.84
2023-02-18T03:00:18.558Z,3.80
2023-02-18T03:03:16.825Z,3.81
2023-02-18T03:05:47.790Z,3.83
2023-02-18T03:08:32.910Z,3.82
2023-02-18T03:11:14.933Z,3.86
2023-02-18T03:13:52.835Z,3.86
2023-02-18T03:16:47.715Z,3.88
2023-02-18T03:19:28.690Z,3.90
2023-02-18T03:22:01.553Z,3.93
2023-02-18T03:24:34.013Z,3.94
2023-02-18T03:27:10.425Z,3.98
2023-02-18T03:29:39.214Z,4.02
2023-02-18T03:32:08.661Z,4.04
2023-02-18T03:34:39.842Z,4.03
2023-02-18T03:37:10.867Z,4.02
2023-02-18T03:39:41.290Z,4.04
2023-02-18T03:42:09.436Z,4.03
2023-02-18T03:44:37.895Z,4.06
2023-02-18T03:47:06.436Z,4.01
2023-02-18T03:49:35.196Z,4.02
2023-02-18T03:52:03.710Z,4.04
2023-02-18T03:54:33.521Z,4.07
2023-02-18T03:57:02.514Z,4.10
2023-02-18T03:59:32.613Z,4.16
2023-02-18T04:02:01.142Z,4.13
2023-02-18T04:04:30.375Z,4.15
2023-02-18T04:06:59.060Z,4.18
2023-02-18T04:09:32.281Z,4.15
2023-02-18T04:12:00.605Z,4.14
2023-02-18T04:14:29.138Z,4.16
2023-02-18T04:17:01.532Z,4.16
2023-02-18T04:19:29.818Z,4.15
2023-02-18T04:22:02.576Z,4.15
2023-02-18T04:24:30.826Z,4.19
2023-02-18T04:26:59.030Z,4.24
2023-02-18T04:29:27.496Z,4.26
2023-02-18T04:31:55.939Z,4.29
2023-02-18T04:34:24.328Z,4.31
2023-02-18T04:36:52.637Z,4.32
2023-02-18T04:39:20.939Z,4.33
2023-02-18T04:41:49.292Z,4.39
2023-02-18T04:44:18.884Z,4.44
2023-02-18T04:46:47.271Z,4.46
2023-02-18T04:49:15.422Z,4.44
2023-02-18T04:51:43.738Z,4.49
2023-02-18T04:54:14.806Z,4.52
2023-02-18T04:56:43.065Z,4.54
2023-02-18T04:59:11.955Z,4.59
2023-02-18T05:01:40.670Z,4.62
2023-02-18T05:04:09.122Z,4.64
2023-02-18T05:06:39.677Z,4.67
2023-02-18T05:09:08.350Z,4.71
2023-02-18T05:11:36.708Z,4.70
2023-02-18T05:14:05.498Z,4.67
2023-02-18T05:16:36.771Z,4.70
2023-02-18T05:19:05.409Z,4.76
2023-02-18T05:21:34.233Z,4.81
2023-02-18T05:24:02.494Z,4.85
2023-02-18T05:26:30.832Z,4.92
2023-02-18T05:28:59.753Z,4.94
2023-02-18T05:31:28.274Z,4.97
2023-02-18T05:33:56.615Z,5.03
2023-02-18T05:36:25.280Z,5.08
2023-02-18T05:38:57.807Z,5.14
2023-02-18T05:41:26.161Z,5.18
2023-02-18T05:44:13.133Z,5.24
2023-02-18T05:46:41.405Z,5.28
2023-02-18T05:49:10.007Z,5.35
2023-02-18T05:51:38.964Z,5.40
2023-02-18T05:54:07.651Z,5.47
2023-02-18T05:56:35.852Z,5.47
2023-02-18T05:59:04.566Z,5.54
2023-02-18T06:01:33.153Z,5.59
2023-02-18T06:04:01.866Z,5.66
2023-02-18T06:06:32.471Z,5.69
2023-02-18T06:09:01.828Z,5.72
2023-02-18T06:11:30.439Z,5.75
2023-02-18T06:13:58.770Z,5.83
2023-02-18T06:16:27.454Z,5.88
2023-02-18T06:18:55.866Z,5.89
2023-02-18T06:21:24.528Z,5.95
2023-02-18T06:23:56.700Z,6.02
2023-02-18T06:26:26.989Z,6.03
2023-02-18T06:28:55.965Z,6.04
2023-02-18T06:31:24.447Z,6.12
2023-02-18T06:33:54.141Z,6.21
2023-02-18T06:36:22.620Z,6.27
2023-02-18T06:38:51.124Z,6.34
2023-02-18T06:41:19.968Z,6.42
2023-02-18T06:43:49.088Z,6.52
2023-02-18T06:46:17.366Z,6.65
2023-02-18T06:48:45.825Z,6.66
2023-02-18T06:51:16.244Z,6.78
2023-02-18T06:53:44.609Z,6.89
2023-02-18T06:56:12.889Z,7.04
2023-02-18T06:58:41.220Z,7.13
2023-02-18T07:01:09.561Z,7.31
2023-02-18T07:03:38.128Z,7.47
2023-02-18T07:06:07.804Z,7.52
2023-02-18T07:08:39.302Z,7.57
2023-02-18T07:11:07.711Z,7.74
2023-02-18T07:13:37.239Z,7.82
2023-02-18T07:16:06.097Z,7.93
2023-02-18T07:18:34.674Z,8.15
2023-02-18T07:21:02.925Z,8.28
2023-02-18T07:23:31.197Z,8.36
2023-02-18T07:26:11.738Z,8.27
2023-02-18T07:28:40.811Z,8.28
2023-02-18T07:31:09.127Z,8.26
2023-02-18T07:33:37.779Z,8.27
2023-02-18T07:36:07.918Z,8.24
2023-02-18T07:38:36.462Z,8.25
2023-02-18T07:41:05.139Z,8.23
2023-02-18T07:43:34.120Z,8.26
2023-02-18T07:46:06.729Z,8.30
2023-02-18T07:48:36.136Z,8.25
2023-02-18T07:51:10.551Z,8.25
2023-02-18T07:53:39.545Z,8.24
2023-02-18T07:56:08.198Z,8.19
2023-02-18T07:58:37.589Z,8.16
2023-02-18T08:01:10.121Z,8.11
2023-02-18T08:03:39.086Z,8.10
2023-02-18T08:06:09.092Z,8.02
2023-02-18T08:08:38.568Z,8.06
2023-02-18T08:11:18.575Z,8.19
2023-02-18T08:13:49.049Z,8.34
2023-02-18T08:16:18.354Z,8.44
2023-02-18T08:18:48.092Z,8.56
2023-02-18T08:21:17.322Z,8.65
2023-02-18T08:23:45.564Z,8.73
2023-02-18T08:26:14.366Z,8.77
2023-02-18T08:28:46.872Z,8.81
2023-02-18T08:31:19.819Z,8.81
2023-02-18T08:35:08.191Z,8.42
2023-02-18T08:37:53.014Z,8.71
2023-02-18T08:40:23.207Z,8.78
2023-02-18T08:42:51.501Z,8.84
2023-02-18T08:45:20.116Z,8.89
2023-02-18T08:48:17.324Z,8.90
2023-02-18T08:50:37.819Z,8.90
2023-02-18T08:53:06.266Z,8.96
2023-02-18T08:55:40.327Z,9.00
2023-02-18T08:58:08.804Z,8.92
2023-02-18T09:00:37.998Z,8.97
2023-02-18T09:03:06.591Z,9.01
2023-02-18T09:05:35.504Z,8.96
2023-02-18T09:08:04.070Z,8.95
2023-02-18T09:10:32.401Z,8.94
2023-02-18T09:13:00.646Z,8.91
2023-02-18T09:15:29.275Z,8.90
2023-02-18T09:17:57.639Z,8.92
2023-02-18T09:20:26.482Z,9.05
2023-02-18T09:22:54.909Z,9.08
2023-02-18T09:25:23.707Z,9.07
2023-02-18T09:27:52.366Z,9.02
2023-02-18T09:30:20.846Z,9.01
2023-02-18T09:32:49.661Z,9.02
2023-02-18T09:35:18.271Z,9.09
2023-02-18T09:37:47.687Z,9.10
2023-02-18T09:40:28.397Z,9.01
2023-02-18T09:42:57.471Z,9.10
2023-02-18T09:45:26.538Z,9.19
2023-02-18T09:47:55.560Z,9.17
2023-02-18T09:50:29.321Z,9.18
2023-02-18T09:53:01.149Z,9.15
2023-02-18T09:55:32.139Z,9.13
2023-02-18T09:58:19.950Z,9.13
2023-02-18T10:00:54.613Z,9.11
2023-02-18T10:03:44.553Z,9.17
2023-02-18T10:06:15.724Z,9.21
2023-02-18T10:08:46.718Z,9.20
2023-02-18T10:11:29.826Z,9.27
2023-02-18T10:14:01.851Z,9.19
2023-02-18T10:16:30.802Z,9.25
2023-02-18T10:19:04.065Z,9.23
2023-02-18T10:21:36.253Z,9.36
2023-02-18T10:24:31.454Z,9.33
2023-02-18T10:26:59.936Z,9.40
2023-02-18T10:29:31.033Z,9.50
2023-02-18T10:32:13.586Z,9.65
2023-02-18T10:34:51.340Z,9.84
2023-02-18T10:37:57.283Z,9.87
2023-02-18T10:40:47.380Z,10.03
2023-02-18T10:43:19.633Z,10.24
2023-02-18T10:46:14.078Z,10.49
2023-02-18T10:48:58.368Z,10.72
2023-02-18T10:51:33.806Z,10.72
2023-02-18T10:54:02.378Z,10.71
2023-02-18T10:56:40.647Z,10.61
2023-02-18T10:59:14.825Z,10.64
2023-02-18T11:01:44.599Z,10.53
2023-02-18T11:04:16.735Z,10.35
2023-02-18T11:06:47.287Z,10.34
2023-02-18T11:09:26.759Z,10.27
2023-02-18T11:12:08.846Z,10.10
2023-02-18T11:14:45.460Z,10.06
2023-02-18T11:17:27.646Z,10.12
2023-02-18T11:20:02.067Z,10.11
2023-02-18T11:22:33.857Z,10.08
2023-02-18T11:25:04.518Z,10.05
2023-02-18T11:27:44.864Z,10.01
2023-02-18T11:30:28.217Z,10.02
2023-02-18T11:32:58.988Z,10.04
2023-02-18T11:35:28.959Z,9.89
2023-02-18T11:37:58.307Z,9.70
2023-02-18T11:40:34.385Z,9.56
2023-02-18T11:43:09.403Z,9.56
2023-02-18T11:45:38.168Z,9.55
2023-02-18T11:48:16.485Z,9.48
2023-02-18T11:50:45.771Z,9.41
2023-02-18T11:53:29.449Z,9.39
2023-02-18T11:55:59.855Z,9.42
2023-02-18T11:58:41.673Z,9.48
2023-02-18T12:01:42.826Z,9.53
2023-02-18T12:04:24.119Z,9.50
2023-02-18T12:07:15.969Z,9.53
2023-02-18T12:09:56.310Z,9.50
2023-02-18T12:12:31.525Z,9.56
2023-02-18T12:15:00.907Z,9.68
2023-02-18T12:17:54.797Z,9.74
2023-02-18T12:21:02.467Z,9.83
2023-02-18T12:24:01.000Z,9.83
2023-02-18T12:26:58.948Z,9.80
2023-02-18T12:29:49.411Z,9.90
2023-02-18T12:32:58.856Z,9.86
2023-02-18T12:35:52.421Z,9.67
2023-02-18T12:38:33.135Z,9.61
2023-02-18T12:41:27.862Z,9.50
2023-02-18T12:44:27.882Z,9.49
2023-02-18T12:47:05.144Z,9.40
2023-02-18T12:49:42.575Z,9.40
2023-02-18T12:52:34.088Z,9.41
2023-02-18T12:55:31.299Z,9.31
2023-02-18T12:58:08.671Z,9.36
2023-02-18T13:01:09.668Z,9.27
2023-02-18T13:03:51.674Z,9.21
2023-02-18T13:06:42.927Z,9.08
2023-02-18T13:09:34.327Z,9.09
2023-02-18T13:12:30.252Z,8.99
2023-02-18T13:15:04.544Z,8.89
2023-02-18T13:17:36.304Z,8.85
2023-02-18T13:20:35.462Z,8.83
2023-02-18T13:23:04.117Z,8.81
2023-02-18T13:25:35.756Z,8.79
2023-02-18T13:28:42.644Z,8.80
2023-02-18T13:31:25.756Z,8.82
2023-02-18T13:34:19.590Z,8.78
2023-02-18T13:37:08.966Z,8.78
2023-02-18T13:39:37.295Z,8.67
2023-02-18T13:42:18.653Z,8.76
2023-02-18T13:45:03.344Z,8.75
2023-02-18T13:47:38.904Z,8.66
2023-02-18T13:50:22.731Z,8.58
2023-02-18T13:53:13.129Z,8.72
2023-02-18T13:55:47.049Z,8.67
2023-02-18T13:58:48.635Z,8.71
2023-02-18T14:01:36.352Z,8.73
2023-02-18T14:04:04.790Z,8.77
2023-02-18T14:06:38.023Z,8.78
2023-02-18T14:09:14.741Z,8.65
2023-02-18T14:11:58.507Z,8.66
2023-02-18T14:14:27.474Z,8.58
2023-02-18T14:17:19.198Z,8.58
2023-02-18T14:20:00.742Z,8.59
2023-02-18T14:22:33.527Z,8.55
2023-02-18T14:25:13.941Z,8.58
2023-02-18T14:27:43.050Z,8.45
2023-02-18T14:30:20.874Z,8.31
2023-02-18T14:32:50.990Z,8.31
2023-02-18T14:35:32.655Z,8.30
2023-02-18T14:38:12.968Z,8.24
2023-02-18T14:41:09.053Z,8.22
2023-02-18T14:43:44.725Z,8.23
2023-02-18T14:46:16.341Z,8.22
2023-02-18T14:48:47.787Z,8.19
2023-02-18T14:51:20.784Z,8.17
2023-02-18T14:53:49.016Z,8.15
2023-02-18T14:56:18.898Z,8.12
2023-02-18T14:59:13.598Z,8.10
2023-02-18T15:01:42.075Z,8.08
2023-02-18T15:04:12.453Z,8.13
2023-02-18T15:06:41.046Z,8.10
2023-02-18T15:09:19.966Z,8.09
2023-02-18T15:11:52.156Z,8.06
2023-02-18T15:14:32.631Z,8.01
2023-02-18T15:17:07.262Z,7.98
2023-02-18T15:19:44.649Z,7.98
2023-02-18T15:22:21.311Z,8.01
2023-02-18T15:24:50.778Z,7.90
2023-02-18T15:27:29.840Z,7.87
2023-02-18T15:30:03.556Z,7.85
2023-02-18T15:32:32.845Z,7.83
2023-02-18T15:35:02.658Z,7.79
2023-02-18T15:37:31.190Z,7.78
2023-02-18T15:39:59.450Z,7.82
2023-02-18T15:42:30.133Z,7.83
2023-02-18T15:45:03.988Z,7.80
2023-02-18T15:47:33.018Z,7.78
2023-02-18T15:50:02.482Z,7.77
2023-02-18T15:52:32.770Z,7.76
2023-02-18T15:55:19.938Z,7.75
2023-02-18T15:57:48.934Z,7.78
2023-02-18T16:00:20.865Z,7.78
2023-02-18T16:02:56.805Z,7.71
2023-02-18T16:05:27.438Z,7.74
2023-02-18T16:08:07.305Z,7.72
2023-02-18T16:10:49.362Z,7.62
2023-02-18T16:13:18.514Z,7.60
2023-02-18T16:15:48.746Z,7.60
2023-02-18T16:18:37.184Z,7.61
2023-02-18T16:21:18.967Z,7.59
2023-02-18T16:24:00.682Z,7.58
2023-02-18T16:26:37.972Z,7.54
2023-02-18T16:29:15.468Z,7.53
2023-02-18T16:31:43.800Z,7.49
2023-02-18T16:34:12.101Z,7.54
2023-02-18T16:37:00.966Z,7.50
2023-02-18T16:39:31.316Z,7.58
2023-02-18T16:41:59.528Z,7.52
2023-02-18T16:44:27.796Z,7.58
2023-02-18T16:46:57.185Z,7.58
2023-02-18T16:49:25.328Z,7.63
2023-02-18T16:51:53.528Z,7.63
2023-02-18T16:54:22.039Z,7.58
2023-02-18T16:56:51.212Z,7.58
2023-02-18T16:59:19.617Z,7.53
2023-02-18T17:01:48.051Z,7.49
2023-02-18T17:04:18.390Z,7.43
2023-02-18T17:06:46.981Z,7.48
2023-02-18T17:09:17.750Z,7.41
2023-02-18T17:11:47.027Z,7.38
2023-02-18T17:14:18.121Z,7.38
2023-02-18T17:16:47.622Z,7.37
2023-02-18T17:19:16.743Z,7.32
2023-02-18T17:21:46.965Z,7.36
2023-02-18T17:24:17.660Z,7.33
2023-02-18T17:26:46.236Z,7.21
2023-02-18T17:29:14.404Z,7.26
2023-02-18T17:31:47.290Z,7.25
2023-02-18T17:34:21.049Z,7.27
2023-02-18T17:36:51.728Z,7.25
2023-02-18T17:39:20.046Z,7.29
2023-02-18T17:41:48.652Z,7.26
2023-02-18T17:44:18.213Z,7.29
2023-02-18T17:46:49.900Z,7.34
2023-02-18T17:49:18.428Z,7.34
2023-02-18T17:51:47.290Z,7.32
2023-02-18T17:54:17.546Z,7.31
2023-02-18T17:56:46.229Z,7.24
2023-02-18T17:59:14.966Z,7.22
2023-02-18T18:01:43.940Z,7.17
2023-02-18T18:04:16.303Z,7.13
2023-02-18T18:06:45.933Z,7.14
2023-02-18T18:09:14.872Z,7.17
2023-02-18T18:11:44.051Z,7.20
2023-02-18T18:14:13.775Z,7.21
2023-02-18T18:16:42.077Z,7.20
2023-02-18T18:19:10.420Z,7.24
2023-02-18T18:21:39.099Z,7.26
2023-02-18T18:24:07.567Z,7.21
2023-02-18T18:26:35.860Z,7.31
2023-02-18T18:29:04.856Z,7.26
2023-02-18T18:31:33.288Z,7.22
2023-02-18T18:34:01.697Z,7.20
2023-02-18T18:36:30.053Z,7.24
2023-02-18T18:38:58.464Z,7.27
2023-02-18T18:41:26.766Z,7.28
2023-02-18T18:43:55.149Z,7.32
2023-02-18T18:46:24.023Z,7.28
2023-02-18T18:48:53.203Z,7.23
2023-02-18T18:51:27.724Z,7.35
2023-02-18T18:54:01.190Z,7.41
2023-02-18T18:56:30.138Z,7.35
2023-02-18T18:58:58.443Z,7.41
2023-02-18T19:01:27.583Z,7.39
2023-02-18T19:03:56.099Z,7.38
2023-02-18T19:06:24.940Z,7.43
2023-02-18T19:08:53.197Z,7.47
2023-02-18T19:11:24.388Z,7.45
2023-02-18T19:13:53.177Z,7.49
2023-02-18T19:16:23.323Z,7.54
2023-02-18T19:18:52.076Z,7.60
2023-02-18T19:21:20.350Z,7.62
2023-02-18T19:23:49.096Z,7.63
2023-02-18T19:26:17.409Z,7.60
2023-02-18T19:28:48.546Z,7.65
2023-02-18T19:31:17.104Z,7.65
2023-02-18T19:33:47.058Z,7.68
2023-02-18T19:36:16.857Z,7.65
2023-02-18T19:38:47.050Z,7.64
2023-02-18T19:41:17.056Z,7.61
2023-02-18T19:43:47.141Z,7.60
2023-02-18T19:46:17.604Z,7.51
2023-02-18T19:48:50.734Z,7.52
2023-02-18T19:51:20.780Z,7.51
2023-02-18T19:53:49.300Z,7.54
2023-02-18T19:56:17.672Z,7.55
2023-02-18T19:58:45.982Z,7.56
2023-02-18T20:01:15.355Z,7.56
2023-02-18T20:03:43.764Z,7.51
2023-02-18T20:06:21.013Z,7.54
2023-02-18T20:08:49.199Z,7.54
2023-02-18T20:11:18.025Z,7.57
2023-02-18T20:13:47.817Z,7.53
2023-02-18T20:16:16.324Z,7.52
2023-02-18T20:18:44.826Z,7.52
2023-02-18T20:21:13.418Z,7.51
2023-02-18T20:23:43.395Z,7.50
2023-02-18T20:26:13.135Z,7.42
2023-02-18T20:28:41.694Z,7.43
2023-02-18T20:31:12.426Z,7.36
2023-02-18T20:33:42.571Z,7.32
2023-02-18T20:36:11.224Z,7.30
2023-02-18T20:38:39.708Z,7.30
2023-02-18T20:41:14.569Z,7.32
2023-02-18T20:43:43.972Z,7.27
2023-02-18T20:46:17.203Z,7.22
2023-02-18T20:51:29.775Z,6.76
2023-02-18T20:53:58.131Z,7.10
2023-02-18T20:56:26.693Z,7.13
2023-02-18T20:58:55.456Z,7.06
2023-02-18T21:01:23.643Z,7.06
2023-02-18T21:03:52.190Z,7.06
2023-02-18T21:06:22.059Z,7.07
2023-02-18T21:08:52.709Z,7.05
2023-02-18T21:11:23.135Z,6.96
2023-02-18T21:13:52.194Z,6.94
2023-02-18T21:16:21.394Z,6.94
2023-02-18T21:18:50.597Z,6.87
2023-02-18T21:21:20.505Z,6.83
